createdAt,value
2023-05-01T00:03:16.463Z,83
2023-05-01T00:13:16.382Z,83
2023-05-01T00:23:16.324Z,83
2023-05-01T00:33:16.359Z,83
2023-05-01T00:43:16.301Z,83
2023-05-01T00:53:16.284Z,84
2023-05-01T01:03:16.316Z,84
2023-05-01T01:13:16.236Z,84
2023-05-01T01:23:16.243Z,84
2023-05-01T01:33:16.199Z,84
2023-05-01T01:43:16.267Z,84
2023-05-01T01:53:16.192Z,85
2023-05-01T02:03:16.248Z,86
2023-05-01T02:13:16.119Z,87
2023-05-01T02:23:16.139Z,87
2023-05-01T02:33:16.130Z,88
2023-05-01T02:43:16.086Z,88
2023-05-01T02:53:16.104Z,88
2023-05-01T03:03:16.245Z,89
2023-05-01T03:13:16.042Z,89
2023-05-01T03:23:16.023Z,90
2023-05-01T03:33:16.007Z,90
2023-05-01T03:43:15.987Z,90
2023-05-01T03:53:15.990Z,90
2023-05-01T04:03:16.052Z,91
2023-05-01T04:13:15.963Z,91
2023-05-01T04:23:15.907Z,91
2023-05-01T04:33:15.934Z,91
2023-05-01T04:43:15.938Z,91
2023-05-01T04:53:15.881Z,92
2023-05-01T05:03:15.896Z,92
2023-05-01T05:13:15.831Z,92
2023-05-01T05:23:15.821Z,92
2023-05-01T05:33:15.817Z,92
2023-05-01T05:43:15.794Z,92
2023-05-01T05:53:15.833Z,93
2023-05-01T06:03:15.902Z,93
2023-05-01T06:13:15.737Z,93
2023-05-01T06:23:15.696Z,93
2023-05-01T06:33:15.907Z,93
2023-05-01T06:43:15.697Z,93
2023-05-01T06:53:15.702Z,93
2023-05-01T07:03:15.688Z,93
2023-05-01T07:13:15.646Z,93
2023-05-01T07:23:15.608Z,94
2023-05-01T07:33:15.787Z,94
2023-05-01T07:43:15.579Z,94
2023-05-01T07:53:15.589Z,94
2023-05-01T08:03:15.702Z,94
2023-05-01T08:13:15.559Z,94
2023-05-01T08:23:15.535Z,94
2023-05-01T08:33:15.528Z,94
2023-05-01T08:43:15.503Z,95
2023-05-01T08:53:15.474Z,94
2023-05-01T09:03:15.507Z,94
2023-05-01T09:13:15.441Z,94
2023-05-01T09:23:15.430Z,94
2023-05-01T09:33:15.497Z,94
2023-05-01T09:43:15.438Z,95
2023-05-01T09:53:15.338Z,95
2023-05-01T10:03:15.476Z,95
2023-05-01T10:13:15.364Z,95
2023-05-01T10:23:15.333Z,95
2023-05-01T10:33:15.374Z,95
2023-05-01T10:43:15.274Z,95
2023-05-01T10:53:15.266Z,95
2023-05-01T11:03:15.264Z,95
2023-05-01T11:13:15.200Z,95
2023-05-01T11:23:15.227Z,95
2023-05-01T11:33:15.293Z,94
2023-05-01T11:43:15.208Z,94
2023-05-01T11:53:15.159Z,93
2023-05-01T12:03:15.665Z,93
2023-05-01T12:13:15.356Z,92
2023-05-01T12:23:15.112Z,92
2023-05-01T12:33:15.191Z,92
2023-05-01T12:43:15.039Z,92
2023-05-01T12:53:15.043Z,92
2023-05-01T13:03:15.118Z,92
2023-05-01T13:13:15.113Z,92
2023-05-01T13:23:15.004Z,92
2023-05-01T13:33:15.047Z,92
2023-05-01T13:43:14.949Z,92
2023-05-01T13:53:14.914Z,93
2023-05-01T14:03:15.329Z,94
2023-05-01T14:13:14.883Z,94
2023-05-01T14:23:14.866Z,94
2023-05-01T14:33:14.912Z,94
2023-05-01T14:43:14.847Z,94
2023-05-01T14:53:15.565Z,95
2023-05-01T15:03:14.943Z,95
2023-05-01T15:13:15.332Z,95
2023-05-01T15:23:15.719Z,95
2023-05-01T15:33:17.131Z,95
2023-05-01T15:43:14.763Z,95
2023-05-01T15:53:14.707Z,95
2023-05-01T16:03:14.772Z,95
2023-05-01T16:13:14.718Z,95
2023-05-01T16:23:14.651Z,95
2023-05-01T16:33:16.186Z,95
2023-05-01T16:43:14.631Z,95
2023-05-01T16:53:21.820Z,95
2023-05-01T17:03:14.882Z,95
2023-05-01T17:13:15.114Z,95
2023-05-01T17:23:14.558Z,95
2023-05-01T17:33:15.067Z,94
2023-05-01T17:43:15.010Z,94
2023-05-01T17:53:14.496Z,94
2023-05-01T18:03:14.848Z,94
2023-05-01T18:13:14.525Z,94
2023-05-01T18:23:14.470Z,94
2023-05-01T18:33:14.456Z,95
2023-05-01T18:43:14.432Z,95
2023-05-01T18:53:14.420Z,95
2023-05-01T19:03:14.399Z,95
2023-05-01T19:13:14.450Z,95
2023-05-01T19:23:14.342Z,95
2023-05-01T19:33:14.416Z,95
2023-05-01T19:43:14.294Z,95
2023-05-01T19:53:14.293Z,95
2023-05-01T20:03:23.948Z,95
2023-05-01T20:13:14.297Z,95
2023-05-01T20:23:14.387Z,95
2023-05-01T20:33:14.452Z,95
2023-05-01T20:43:14.320Z,96
2023-05-01T20:53:14.391Z,96
2023-05-01T21:03:14.476Z,96
2023-05-01T21:13:14.182Z,96
2023-05-01T21:23:14.412Z,96
2023-05-01T21:33:14.168Z,96
2023-05-01T21:43:14.136Z,96
2023-05-01T21:53:14.099Z,96
2023-05-01T22:03:14.207Z,96
2023-05-01T22:13:14.078Z,96
2023-05-01T22:23:14.091Z,96
2023-05-01T22:33:14.097Z,96
2023-05-01T22:43:14.021Z,97
2023-05-01T22:53:14.068Z,97
2023-05-01T23:03:14.064Z,97
2023-05-01T23:13:13.971Z,96
2023-05-01T23:23:13.961Z,96
2023-05-01T23:33:14.091Z,96
2023-05-01T23:43:13.960Z,96
2023-05-01T23:53:13.944Z,97
